Terminal Aerodrome Forecast
Issued by NWS

Home | Current Version | Previous Version | Text Only | Print | Product List | Glossary On
Versions: 1 2 3 4 5 6 7 8 9 10 11 12 13 14 15 16 17 18 19 20 21 22 23 24 25 26 27 28 29 30 31 32 33
000
FTUS45 KBOU 301738
TAFAPA
TAF
KAPA 301738Z 3018/3118 21009KT P6SM FEW150 SCT200
     FM302000 18007KT P6SM FEW090 SCT150 BKN200
     FM302200 18012KT P6SM SCT090 BKN140
      TEMPO 3023/3102 VRB20G32KT -TSRA BKN090CB
     FM310300 16009KT P6SM FEW090 BKN140
     FM310600 19010KT P6SM SCT140 SCT200=

USA.gov is the U.S. government's official web portal to all federal, state and local government web resources and services.